Time;durP1;ratioP1;P1;durP2;ratioP2;P2;SDS_P1;SDS_P2;PMS_P1;PMS_P2;Temp;Humidity;BMP_temperature;BMP_pressure;BME280_temperature;BME280_humidity;BME280_pressure;Samples;Min_cycle;Max_cycle;Signal;HPM_P1;HPM_P2
2022/01/02 00:01:58;;;;;;;8.67;5.87;;;;;;;10.52;92.75;97377.88;5096746;28;20443;-33
2022/01/02 00:04:31;;;;;;;8.20;6.20;;;;;;;10.54;92.93;97373.16;5096613;28;20441;-35
2022/01/02 00:07:06;;;;;;;10.50;6.17;;;;;;;10.48;92.29;97363.41;5096626;28;20439;-34
2022/01/02 00:09:34;;;;;;;11.43;5.60;;;;;;;10.54;92.22;97377.63;5096262;28;20968;-34
2022/01/02 00:12:07;;;;;;;11.30;6.10;;;;;;;10.51;92.96;97372.78;5096318;28;20443;-37
2022/01/02 00:14:36;;;;;;;8.87;6.37;;;;;;;10.49;92.49;97372.19;5096162;28;20431;-35
2022/01/02 00:17:05;;;;;;;8.33;6.17;;;;;;;10.47;92.22;97383.00;5096365;28;20548;-34
2022/01/02 00:19:38;;;;;;;7.83;5.40;;;;;;;10.43;92.66;97382.66;5096245;28;20481;-34
2022/01/02 00:22:14;;;;;;;11.87;6.37;;;;;;;10.43;92.97;97381.81;5096393;28;20453;-34
2022/01/02 00:24:42;;;;;;;10.03;7.30;;;;;;;10.44;92.91;97383.47;5096270;28;20438;-35
2022/01/02 00:27:11;;;;;;;12.77;8.20;;;;;;;10.42;92.52;97385.53;5095852;28;20492;-34
2022/01/02 00:29:39;;;;;;;12.80;6.60;;;;;;;10.38;92.63;97385.16;5095828;28;20457;-34
2022/01/02 00:32:07;;;;;;;7.17;5.93;;;;;;;10.37;92.84;97385.38;5095863;28;20567;-34
2022/01/02 00:34:38;;;;;;;7.60;6.37;;;;;;;10.36;92.95;97384.56;5095804;28;20471;-36
2022/01/02 00:37:05;;;;;;;7.93;6.33;;;;;;;10.39;92.05;97385.94;5095920;28;20830;-37
2022/01/02 00:39:33;;;;;;;11.93;7.70;;;;;;;10.39;92.15;97391.25;5095957;28;20450;-37
2022/01/02 00:42:07;;;;;;;11.33;7.87;;;;;;;10.41;92.07;97394.50;5095607;28;20534;-37
2022/01/02 00:44:54;;;;;;;12.27;7.90;;;;;;;10.40;92.10;97403.50;5095051;28;20475;-36
2022/01/02 00:47:28;;;;;;;8.27;7.27;;;;;;;10.41;92.02;97399.81;5095973;28;20431;-36
2022/01/02 00:50:06;;;;;;;6.50;5.80;;;;;;;10.38;92.30;97397.63;5095795;28;20436;-36
2022/01/02 00:52:37;;;;;;;11.63;7.17;;;;;;;10.39;92.16;97400.06;5095846;28;20840;-37
2022/01/02 00:55:07;;;;;;;8.27;5.90;;;;;;;10.43;91.61;97403.91;5094858;28;20443;-37
2022/01/02 00:57:36;;;;;;;7.23;5.73;;;;;;;10.45;91.45;97404.50;5095983;28;20423;-36
2022/01/02 01:00:15;;;;;;;8.90;5.90;;;;;;;10.44;91.01;97416.13;5094742;28;20469;-35
2022/01/02 01:02:46;;;;;;;12.77;8.17;;;;;;;10.46;90.89;97405.28;5095208;28;20791;-34
2022/01/02 01:05:21;;;;;;;12.33;6.40;;;;;;;10.45;91.10;97401.00;5095203;28;20961;-34
2022/01/02 01:07:49;;;;;;;10.23;7.13;;;;;;;10.42;90.95;97406.75;5095490;28;20489;-36
2022/01/02 01:10:17;;;;;;;14.50;8.00;;;;;;;10.40;91.35;97420.25;5095029;28;20455;-35
2022/01/02 01:12:45;;;;;;;14.33;7.40;;;;;;;10.40;91.36;97406.16;5095052;28;20496;-34
2022/01/02 01:15:13;;;;;;;8.77;6.23;;;;;;;10.29;90.88;97406.88;5094842;28;20442;-36
2022/01/02 01:17:41;;;;;;;7.67;5.60;;;;;;;10.40;90.47;97420.25;5095465;28;20500;-37
2022/01/02 01:20:13;;;;;;;12.50;6.57;;;;;;;10.41;91.06;97415.75;5094746;28;20443;-34
2022/01/02 01:22:44;;;;;;;6.50;5.40;;;;;;;10.42;90.34;97412.88;5094893;28;20941;-36
2022/01/02 01:25:16;;;;;;;9.50;5.67;;;;;;;10.39;90.49;97407.19;5094838;28;20427;-36
2022/01/02 01:27:44;;;;;;;8.33;6.50;;;;;;;10.39;90.59;97408.03;5094759;28;20445;-34
2022/01/02 01:30:12;;;;;;;11.07;7.27;;;;;;;10.41;90.18;97402.47;5094600;28;20940;-35
2022/01/02 01:32:40;;;;;;;9.67;6.03;;;;;;;10.38;90.65;97413.53;5094575;28;20447;-33
2022/01/02 01:35:08;;;;;;;9.73;6.27;;;;;;;10.32;91.03;97401.16;5094877;28;20502;-34
2022/01/02 01:37:36;;;;;;;9.80;6.43;;;;;;;10.32;90.52;97406.44;5094729;28;20974;-33
2022/01/02 01:40:06;;;;;;;9.40;6.37;;;;;;;10.31;90.94;97407.50;5094431;28;20919;-35
2022/01/02 01:42:36;;;;;;;8.77;5.97;;;;;;;10.27;91.12;97399.13;5094480;28;20427;-34
2022/01/02 01:47:45;;;;;;;7.93;6.77;;;;;;;10.30;90.90;97411.97;5093374;28;20435;-35
2022/01/02 01:50:13;;;;;;;7.03;5.87;;;;;;;10.27;91.44;97409.75;5094288;28;20445;-35
2022/01/02 01:52:40;;;;;;;7.00;6.30;;;;;;;10.25;91.05;97399.34;5094262;28;20926;-34
2022/01/02 01:55:10;;;;;;;10.07;6.50;;;;;;;10.28;91.04;97407.88;5094467;28;20443;-34
2022/01/02 01:57:39;;;;;;;7.43;5.60;;;;;;;10.30;90.72;97408.50;5093633;28;20483;-34
2022/01/02 02:00:09;;;;;;;6.97;5.70;;;;;;;10.31;90.81;97404.84;5094117;28;20443;-34
2022/01/02 02:02:37;;;;;;;6.90;5.57;;;;;;;10.31;90.37;97404.84;5094059;28;20506;-36
2022/01/02 02:05:04;;;;;;;11.00;6.50;;;;;;;10.32;90.69;97412.56;5094319;28;20501;-34
2022/01/02 02:07:39;;;;;;;7.37;6.50;;;;;;;10.34;90.11;97413.16;5094006;28;20926;-33
2022/01/02 02:10:15;;;;;;;11.13;5.43;;;;;;;10.39;90.19;97401.88;5094062;28;20440;-36
2022/01/02 02:12:45;;;;;;;6.57;5.73;;;;;;;10.37;90.41;97403.97;5093974;28;20462;-35
2022/01/02 02:15:14;;;;;;;16.27;6.23;;;;;;;10.38;90.24;97402.91;5093883;28;20435;-36
2022/01/02 02:17:43;;;;;;;10.50;7.90;;;;;;;10.38;89.83;97400.28;5094061;28;20487;-36
2022/01/02 02:20:16;;;;;;;7.63;6.73;;;;;;;10.38;90.36;97410.88;5094053;28;20942;-34
2022/01/02 02:22:46;;;;;;;10.83;6.17;;;;;;;10.40;90.54;97419.44;5093818;28;20427;-34
2022/01/02 02:25:15;;;;;;;8.63;6.27;;;;;;;10.41;90.38;97408.63;5094035;28;20444;-33
2022/01/02 02:27:49;;;;;;;9.37;6.10;;;;;;;10.39;90.41;97409.84;5094016;28;20473;-34
2022/01/02 02:30:17;;;;;;;11.23;6.73;;;;;;;10.42;90.04;97412.06;5093875;28;20427;-34
2022/01/02 02:32:44;;;;;;;7.57;6.30;;;;;;;10.42;90.23;97412.06;5093547;28;20439;-36
2022/01/02 02:35:12;;;;;;;9.70;5.67;;;;;;;10.44;89.98;97418.78;5094037;28;20447;-35
2022/01/02 02:37:43;;;;;;;9.23;6.20;;;;;;;10.44;89.96;97417.97;5093755;28;20486;-34
2022/01/02 02:40:12;;;;;;;11.13;7.47;;;;;;;10.47;89.51;97414.88;5093585;28;20488;-34
2022/01/02 02:42:47;;;;;;;12.57;7.70;;;;;;;10.46;89.59;97426.53;5093445;28;20800;-34
2022/01/02 02:51:21;;;;;;;8.40;5.60;;;;;;;10.50;90.03;97430.38;5092489;28;20451;-34
2022/01/02 02:53:51;;;;;;;10.20;7.07;;;;;;;10.49;90.08;97431.38;5093453;28;20525;-34
2022/01/02 02:56:22;;;;;;;15.53;7.60;;;;;;;10.41;89.67;97410.44;5093741;28;20490;-33
2022/01/02 02:58:50;;;;;;;26.63;12.60;;;;;;;10.48;89.64;97428.97;5093666;28;20436;-34
2022/01/02 03:01:20;;;;;;;16.50;7.50;;;;;;;10.35;89.51;97411.34;5093306;28;20805;-35
2022/01/02 03:03:48;;;;;;;6.20;5.53;;;;;;;10.42;89.66;97433.31;5093294;28;20453;-35
2022/01/02 03:06:16;;;;;;;13.00;8.50;;;;;;;10.44;89.56;97426.75;5093259;28;20437;-34
2022/01/02 03:08:45;;;;;;;6.93;5.90;;;;;;;10.41;89.98;97437.81;5096635;28;20430;-35
2022/01/02 03:11:16;;;;;;;8.80;6.10;;;;;;;10.41;90.60;97431.66;5097653;28;20446;-36
2022/01/02 03:13:44;;;;;;;10.40;6.37;;;;;;;10.43;90.30;97432.25;5097969;28;20441;-35
2022/01/02 03:16:12;;;;;;;12.97;6.53;;;;;;;10.45;90.09;97427.53;5097189;28;20479;-35
2022/01/02 03:18:39;;;;;;;7.90;5.93;;;;;;;10.35;90.20;97419.31;5097267;28;20445;-36
2022/01/02 03:21:07;;;;;;;8.67;5.67;;;;;;;10.43;90.04;97435.75;5097116;28;20453;-37
2022/01/02 03:23:35;;;;;;;8.10;6.17;;;;;;;10.45;89.93;97444.31;5097113;28;20807;-37
2022/01/02 03:26:02;;;;;;;7.50;6.00;;;;;;;10.48;89.93;97440.41;5097018;28;20446;-36
2022/01/02 03:28:30;;;;;;;9.23;6.00;;;;;;;10.31;89.21;97412.81;5096928;28;20446;-36
2022/01/02 03:30:58;;;;;;;6.10;5.50;;;;;;;10.49;89.71;97441.19;5097253;28;20789;-36
2022/01/02 03:33:25;;;;;;;8.47;6.00;;;;;;;10.48;89.33;97448.38;5096841;28;20531;-36
2022/01/02 03:35:52;;;;;;;8.80;6.83;;;;;;;10.50;89.88;97453.47;5097338;28;20446;-37
2022/01/02 03:38:20;;;;;;;6.00;5.23;;;;;;;10.47;89.51;97454.69;5096825;28;20489;-36
2022/01/02 03:40:47;;;;;;;11.00;7.23;;;;;;;10.46;90.21;97455.72;5096764;28;20449;-36
2022/01/02 03:43:14;;;;;;;8.80;5.93;;;;;;;10.45;89.77;97452.28;5096471;28;20479;-36
2022/01/02 03:45:43;;;;;;;8.67;6.40;;;;;;;10.45;89.95;97454.09;5096976;28;20454;-36
2022/01/02 03:48:10;;;;;;;11.17;6.80;;;;;;;10.31;90.09;97431.38;5096615;28;20941;-36
2022/01/02 03:50:37;;;;;;;8.17;7.27;;;;;;;10.45;90.17;97448.78;5096986;28;20435;-36
2022/01/02 03:53:05;;;;;;;13.30;10.60;;;;;;;10.45;90.16;97459.41;5096584;28;20442;-36
2022/01/02 03:55:32;;;;;;;11.83;7.13;;;;;;;10.46;89.56;97450.44;5096771;28;20446;-36
2022/01/02 03:58:00;;;;;;;9.67;6.53;;;;;;;10.48;89.79;97458.19;5096376;28;20828;-36
2022/01/02 04:00:27;;;;;;;10.03;6.30;;;;;;;10.48;89.64;97458.97;5096435;28;20439;-35
2022/01/02 04:02:56;;;;;;;8.33;6.33;;;;;;;10.46;90.12;97455.72;5096349;28;20816;-33
2022/01/02 04:05:23;;;;;;;6.97;4.90;;;;;;;10.48;89.45;97461.63;5096349;28;20442;-34
2022/01/02 04:07:50;;;;;;;7.83;5.30;;;;;;;10.46;89.43;97469.00;5096239;28;20876;-33
2022/01/02 04:10:19;;;;;;;8.27;7.47;;;;;;;10.44;89.82;97457.78;5096448;28;20463;-35
2022/01/02 04:12:46;;;;;;;11.63;6.97;;;;;;;10.44;89.57;97463.09;5096254;28;20965;-34
2022/01/02 04:15:15;;;;;;;8.27;6.43;;;;;;;10.41;89.52;97467.00;5096338;28;20448;-33
2022/01/02 04:17:43;;;;;;;10.80;6.67;;;;;;;10.42;89.36;97475.78;5096565;28;20491;-36
2022/01/02 04:20:14;;;;;;;8.80;6.80;;;;;;;10.39;89.85;97476.19;5095474;28;20477;-38
2022/01/02 04:22:42;;;;;;;9.30;7.67;;;;;;;10.37;90.36;97475.63;5096306;28;20549;-36
2022/01/02 04:25:10;;;;;;;11.27;6.80;;;;;;;10.37;90.38;97483.59;5096034;28;20439;-35
2022/01/02 04:27:38;;;;;;;8.83;7.07;;;;;;;10.32;90.10;97480.75;5096103;28;20444;-33
2022/01/02 04:30:08;;;;;;;8.33;7.23;;;;;;;10.35;89.90;97485.66;5096340;28;20840;-35
2022/01/02 04:32:35;;;;;;;16.13;11.87;;;;;;;10.37;90.56;97496.88;5095876;28;20918;-35
2022/01/02 04:35:02;;;;;;;15.17;10.90;;;;;;;10.37;90.15;97483.59;5095776;28;20493;-35
2022/01/02 04:37:31;;;;;;;9.47;8.20;;;;;;;10.38;90.14;97495.81;5095694;28;20490;-34
2022/01/02 04:39:58;;;;;;;13.20;6.87;;;;;;;10.39;90.25;97502.75;5095902;28;20446;-34
2022/01/02 04:42:25;;;;;;;12.00;7.40;;;;;;;10.39;90.80;97502.75;5095994;28;20780;-34
2022/01/02 04:44:53;;;;;;;7.60;6.40;;;;;;;10.39;90.49;97490.31;5095408;28;20471;-34
2022/01/02 04:47:20;;;;;;;14.80;8.27;;;;;;;10.38;90.65;97499.28;5095564;28;20450;-35
2022/01/02 04:49:47;;;;;;;14.10;8.10;;;;;;;10.39;90.69;97497.44;5095611;28;20918;-34
2022/01/02 04:52:15;;;;;;;8.50;7.17;;;;;;;10.42;90.43;97507.63;5095553;28;20472;-36
2022/01/02 04:54:43;;;;;;;12.10;7.63;;;;;;;10.23;90.03;97478.34;5095397;28;20443;-37
2022/01/02 04:57:10;;;;;;;11.23;6.13;;;;;;;10.41;90.51;97506.00;5095284;28;20487;-34
2022/01/02 04:59:38;;;;;;;10.80;7.97;;;;;;;10.42;90.58;97500.47;5095550;28;20447;-36
2022/01/02 05:02:06;;;;;;;42.03;18.70;;;;;;;10.42;90.15;97504.97;5095668;28;20450;-34
2022/01/02 05:04:33;;;;;;;20.60;15.37;;;;;;;10.42;90.68;97504.97;5095215;28;20492;-34
2022/01/02 05:07:01;;;;;;;21.33;13.07;;;;;;;10.40;90.53;97510.50;5095497;28;20815;-33
2022/01/02 05:09:28;;;;;;;41.07;27.23;;;;;;;10.42;90.79;97508.44;5095403;28;20443;-33
2022/01/02 05:11:57;;;;;;;25.20;17.67;;;;;;;10.44;89.88;97505.59;5095956;28;20526;-34
2022/01/02 05:14:24;;;;;;;37.87;20.40;;;;;;;10.44;89.98;97510.88;5095035;28;20956;-33
2022/01/02 05:16:51;;;;;;;16.33;10.90;;;;;;;10.32;90.22;97494.03;5094896;28;20483;-33
2022/01/02 05:19:19;;;;;;;51.60;37.47;;;;;;;10.42;90.12;97512.94;5094936;28;20456;-34
2022/01/02 05:21:46;;;;;;;38.30;26.40;;;;;;;10.42;89.67;97518.25;5094882;28;20439;-32
2022/01/02 05:24:13;;;;;;;19.83;15.33;;;;;;;10.39;89.57;97514.19;5094827;28;20457;-34
2022/01/02 05:26:41;;;;;;;9.17;6.93;;;;;;;10.40;89.36;97509.69;5094817;28;20472;-34
2022/01/02 05:29:10;;;;;;;10.87;8.47;;;;;;;10.38;89.61;97511.75;5094740;28;20442;-33
2022/01/02 05:31:37;;;;;;;11.30;7.30;;;;;;;10.33;89.61;97503.63;5094663;28;20446;-33
2022/01/02 05:34:04;;;;;;;12.20;8.70;;;;;;;10.28;89.94;97516.69;5095002;28;20434;-35
2022/01/02 05:36:32;;;;;;;12.50;9.30;;;;;;;10.27;89.78;97515.09;5094567;28;20517;-33
2022/01/02 05:39:00;;;;;;;13.57;9.03;;;;;;;10.24;90.10;97511.84;5094778;28;20475;-33
2022/01/02 05:41:29;;;;;;;25.90;14.00;;;;;;;10.23;90.32;97520.81;5094491;28;20438;-34
2022/01/02 05:43:56;;;;;;;29.63;16.97;;;;;;;10.23;90.35;97515.50;5093835;28;20506;-36
2022/01/02 05:46:25;;;;;;;14.37;9.20;;;;;;;10.23;90.29;97518.16;5094668;28;20465;-34
2022/01/02 05:48:53;;;;;;;11.03;8.07;;;;;;;10.22;89.41;97513.09;5094272;28;20439;-33
2022/01/02 05:51:20;;;;;;;10.47;8.53;;;;;;;10.19;89.88;97516.97;5094539;28;20443;-35
2022/01/02 05:53:47;;;;;;;10.70;6.83;;;;;;;10.16;90.40;97520.06;5094354;28;20923;-35
2022/01/02 05:56:14;;;;;;;9.60;6.67;;;;;;;10.14;90.22;97516.81;5094177;28;20910;-34
2022/01/02 05:58:42;;;;;;;13.87;9.87;;;;;;;10.12;90.70;97521.50;5094071;28;20940;-33
2022/01/02 06:01:09;;;;;;;15.60;8.93;;;;;;;10.12;90.68;97518.84;5094020;28;20447;-35
2022/01/02 06:03:37;;;;;;;13.57;9.93;;;;;;;10.14;90.54;97524.75;5094128;28;20446;-35
2022/01/02 06:06:05;;;;;;;12.40;7.97;;;;;;;10.11;90.35;97525.22;5094336;28;20509;-33
2022/01/02 06:08:33;;;;;;;11.00;7.37;;;;;;;10.09;90.55;97524.63;5094002;28;20933;-36
2022/01/02 06:11:00;;;;;;;11.70;6.93;;;;;;;10.08;90.12;97528.28;5093930;28;20530;-36
2022/01/02 06:13:27;;;;;;;12.47;7.47;;;;;;;10.08;90.31;97528.28;5093934;28;20965;-38
2022/01/02 06:15:54;;;;;;;13.13;6.83;;;;;;;10.08;90.53;97543.38;5093905;28;20450;-36
2022/01/02 06:18:22;;;;;;;12.60;8.50;;;;;;;10.09;89.94;97535.22;5093729;28;20497;-36
2022/01/02 06:20:50;;;;;;;17.10;11.10;;;;;;;10.10;90.57;97536.84;5093886;28;20447;-36
2022/01/02 06:23:18;;;;;;;19.33;12.43;;;;;;;10.11;89.92;97543.78;5094222;28;20934;-35
2022/01/02 06:25:45;;;;;;;18.00;11.80;;;;;;;10.11;89.91;97551.75;5093727;28;20794;-36
2022/01/02 06:28:13;;;;;;;11.83;9.40;;;;;;;10.10;89.42;97542.16;5093614;28;20449;-36
2022/01/02 06:30:40;;;;;;;10.70;8.43;;;;;;;10.16;90.20;97559.88;5093575;28;20450;-36
2022/01/02 06:33:07;;;;;;;15.20;9.40;;;;;;;10.16;89.55;97546.59;5093655;28;20446;-37
2022/01/02 06:35:35;;;;;;;12.07;7.53;;;;;;;10.24;89.29;97561.44;5093904;28;20552;-36
2022/01/02 06:38:13;;;;;;;9.70;8.00;;;;;;;10.29;88.88;97555.50;5093547;28;20482;-36
2022/01/02 06:40:41;;;;;;;9.03;7.87;;;;;;;10.29;88.86;97574.91;5093611;28;20433;-36
2022/01/02 06:43:08;;;;;;;12.20;8.77;;;;;;;10.28;88.34;97557.31;5093180;28;20475;-37
2022/01/02 06:45:36;;;;;;;16.00;11.63;;;;;;;10.25;88.71;97561.22;5082777;28;20478;-36
2022/01/02 06:48:03;;;;;;;12.60;8.00;;;;;;;10.35;88.56;97571.41;5087336;28;20457;-36
2022/01/02 06:50:31;;;;;;;15.20;8.10;;;;;;;10.34;88.16;97567.09;5090927;28;20439;-36
2022/01/02 06:52:58;;;;;;;10.77;9.00;;;;;;;10.35;88.43;97582.03;5092197;28;20441;-36
2022/01/02 06:55:27;;;;;;;8.10;6.00;;;;;;;10.38;88.29;97586.88;5092483;28;20808;-36
2022/01/02 06:57:54;;;;;;;10.13;6.90;;;;;;;10.39;88.59;97595.66;5093449;28;20487;-36
2022/01/02 07:00:21;;;;;;;13.10;6.77;;;;;;;10.38;88.05;97589.53;5093348;28;20633;-35
2022/01/02 07:02:49;;;;;;;8.83;5.40;;;;;;;10.40;88.16;97586.69;5093357;28;20513;-35
2022/01/02 07:05:16;;;;;;;9.40;5.60;;;;;;;10.41;87.80;97591.78;5093615;28;20478;-35
2022/01/02 07:07:44;;;;;;;11.43;7.80;;;;;;;10.21;87.73;97565.31;5093807;28;20447;-35
2022/01/02 07:10:13;;;;;;;12.83;7.13;;;;;;;10.37;87.57;97595.88;5093919;28;20453;-34
2022/01/02 07:12:42;;;;;;;15.40;9.27;;;;;;;10.39;87.79;97591.19;5093564;28;20938;-35
2022/01/02 07:15:11;;;;;;;11.30;7.25;;;;;;;10.21;88.03;97570.63;5092601;28;20422;-36
2022/01/02 07:17:42;;;;;;;14.50;9.40;;;;;;;10.50;87.17;97602.94;5093127;28;20237;-33
2022/01/02 07:20:11;;;;;;;24.37;11.60;;;;;;;10.52;87.92;97589.44;5093528;28;20447;-34
2022/01/02 07:22:40;;;;;;;26.63;12.67;;;;;;;10.54;87.26;97590.88;5093202;28;20439;-33
2022/01/02 07:25:08;;;;;;;27.00;12.57;;;;;;;10.55;86.81;97587.16;5086916;28;20447;-36
2022/01/02 07:27:36;;;;;;;15.93;8.40;;;;;;;10.60;86.92;97611.25;5072115;28;20439;-35
2022/01/02 07:30:06;;;;;;;8.47;6.10;;;;;;;10.63;86.37;97597.53;5073203;28;20755;-34
2022/01/02 07:32:33;;;;;;;21.57;13.80;;;;;;;10.71;86.23;97616.88;5072880;28;20428;-35
2022/01/02 07:35:01;;;;;;;17.97;12.10;;;;;;;10.73;86.31;97612.94;5073224;28;20472;-35
2022/01/02 07:37:28;;;;;;;14.60;9.17;;;;;;;10.79;86.42;97611.28;5072707;28;20440;-34
2022/01/02 07:39:55;;;;;;;10.63;7.10;;;;;;;10.85;85.42;97624.50;5073068;28;20796;-34
2022/01/02 07:42:23;;;;;;;15.70;8.30;;;;;;;10.90;85.57;97610.56;5073010;28;20436;-34
2022/01/02 07:44:50;;;;;;;11.30;8.67;;;;;;;10.93;84.82;97620.78;5072411;28;20558;-34
2022/01/02 07:47:19;;;;;;;10.73;6.90;;;;;;;10.95;85.20;97618.72;5072652;28;20472;-34
2022/01/02 07:49:46;;;;;;;13.33;8.40;;;;;;;10.96;85.21;97625.63;5073796;28;20440;-35
2022/01/02 07:52:13;;;;;;;9.33;7.60;;;;;;;11.00;85.43;97624.19;5072898;28;20440;-34
2022/01/02 07:54:40;;;;;;;9.33;6.13;;;;;;;11.04;84.70;97620.06;5073724;28;20478;-34
2022/01/02 07:57:08;;;;;;;7.07;6.37;;;;;;;11.11;85.20;97617.31;5076602;28;20440;-35
2022/01/02 07:59:35;;;;;;;11.63;7.50;;;;;;;11.18;84.69;97622.56;5080722;28;21022;-36
2022/01/02 08:02:02;;;;;;;10.33;6.33;;;;;;;11.26;84.39;97622.28;5095861;28;20439;-35
2022/01/02 08:04:31;;;;;;;11.60;6.50;;;;;;;11.30;84.14;97626.13;5096006;28;20458;-34
2022/01/02 08:06:58;;;;;;;10.50;5.90;;;;;;;11.32;83.86;97612.63;5096644;28;20443;-35
2022/01/02 08:09:25;;;;;;;13.30;7.40;;;;;;;11.40;84.02;97631.78;5096277;28;20439;-33
2022/01/02 08:11:53;;;;;;;10.20;7.20;;;;;;;11.56;83.93;97619.72;5096290;28;20453;-35
2022/01/02 08:14:21;;;;;;;14.53;6.93;;;;;;;11.75;82.38;97612.53;5096123;28;20525;-35
2022/01/02 08:16:49;;;;;;;11.67;7.67;;;;;;;12.14;82.01;97626.41;5096204;28;20447;-35
2022/01/02 08:19:16;;;;;;;11.60;7.47;;;;;;;12.47;80.61;97636.56;5096082;28;21024;-35
2022/01/02 08:21:45;;;;;;;10.87;7.40;;;;;;;12.80;78.95;97629.09;5096079;28;20443;-33
2022/01/02 08:24:12;;;;;;;10.70;6.63;;;;;;;12.98;76.78;97620.22;5095498;28;20836;-34
2022/01/02 08:26:40;;;;;;;10.60;6.33;;;;;;;13.07;76.31;97624.13;5095331;28;20534;-34
2022/01/02 08:29:07;;;;;;;8.70;6.17;;;;;;;13.26;75.76;97611.50;5096179;28;20447;-33
2022/01/02 08:31:35;;;;;;;10.57;6.37;;;;;;;13.43;74.92;97616.97;5095807;28;20447;-35
2022/01/02 08:34:02;;;;;;;10.77;6.77;;;;;;;13.52;74.42;97612.88;5080844;28;20472;-36
2022/01/02 08:36:29;;;;;;;8.30;5.87;;;;;;;13.77;72.95;97628.63;5074324;28;20524;-37
2022/01/02 08:38:58;;;;;;;8.97;5.90;;;;;;;13.92;72.46;97618.22;5078173;28;20517;-36
2022/01/02 08:41:25;;;;;;;6.00;5.50;;;;;;;14.04;72.33;97626.19;5095944;28;20443;-34
2022/01/02 08:43:53;;;;;;;7.80;5.83;;;;;;;14.09;72.06;97610.28;5095551;28;20843;-35
2022/01/02 08:46:20;;;;;;;8.60;6.23;;;;;;;14.20;70.93;97627.31;5095644;28;20443;-34
2022/01/02 08:48:47;;;;;;;7.33;5.57;;;;;;;14.32;70.29;97636.06;5095766;28;20445;-34
2022/01/02 08:51:15;;;;;;;7.20;6.60;;;;;;;14.41;70.52;97622.31;5095808;28;20447;-36
2022/01/02 08:53:42;;;;;;;11.20;7.57;;;;;;;14.43;69.66;97615.69;5095781;28;20451;-36
2022/01/02 08:56:11;;;;;;;15.37;9.53;;;;;;;14.55;69.44;97626.34;5095408;28;20435;-34
2022/01/02 08:58:38;;;;;;;14.43;8.00;;;;;;;14.54;68.75;97616.69;5095601;28;20594;-36
2022/01/02 09:01:05;;;;;;;10.60;7.50;;;;;;;14.56;69.50;97619.13;5095280;28;20438;-35
2022/01/02 09:03:34;;;;;;;8.47;7.17;;;;;;;14.64;68.94;97613.38;5095537;28;20439;-36
2022/01/02 09:06:01;;;;;;;7.60;6.33;;;;;;;14.73;68.67;97609.25;5094858;28;20457;-35
2022/01/02 09:08:29;;;;;;;10.60;7.97;;;;;;;14.70;67.35;97610.56;5095189;28;20949;-35
2022/01/02 09:10:56;;;;;;;8.77;6.90;;;;;;;14.63;68.41;97606.44;5095117;28;20446;-35
2022/01/02 09:13:26;;;;;;;8.93;6.70;;;;;;;14.61;68.48;97605.88;5095064;28;20811;-35
2022/01/02 09:15:55;;;;;;;9.37;7.20;;;;;;;14.60;68.23;97589.00;5095185;28;20431;-36
2022/01/02 09:18:22;;;;;;;7.37;6.67;;;;;;;14.69;68.43;97582.22;5094433;28;20922;-35
2022/01/02 09:20:49;;;;;;;11.20;6.77;;;;;;;14.80;67.99;97582.34;5094860;28;20945;-35
2022/01/02 09:23:17;;;;;;;7.03;4.97;;;;;;;14.88;68.03;97581.94;5095144;28;20448;-35
2022/01/02 09:25:44;;;;;;;15.17;9.93;;;;;;;14.82;67.65;97585.59;5080428;28;20822;-38
2022/01/02 09:28:16;;;;;;;15.83;9.53;;;;;;;14.89;68.06;97575.56;5073201;28;20807;-38
2022/01/02 09:30:45;;;;;;;12.23;8.97;;;;;;;15.03;67.20;97578.69;5074800;28;20435;-37
2022/01/02 09:33:13;;;;;;;17.70;11.70;;;;;;;15.08;66.20;97574.25;5074331;28;20455;-38
2022/01/02 09:35:41;;;;;;;20.90;10.20;;;;;;;15.05;66.33;97572.03;5074762;28;20440;-35
2022/01/02 09:38:09;;;;;;;15.23;9.83;;;;;;;15.02;66.75;97564.53;5074116;28;20448;-38
2022/01/02 09:40:37;;;;;;;10.27;7.70;;;;;;;14.88;65.61;97548.00;5074025;28;20447;-35
2022/01/02 09:43:05;;;;;;;15.63;10.70;;;;;;;14.81;66.31;97552.72;5074017;28;21002;-36
2022/01/02 09:45:35;;;;;;;10.87;7.53;;;;;;;14.72;65.25;97549.66;5074761;28;20424;-36
2022/01/02 09:48:05;;;;;;;9.30;5.90;;;;;;;14.60;66.55;97554.25;5073886;28;20489;-36
2022/01/02 09:50:35;;;;;;;12.63;7.73;;;;;;;14.37;67.75;97551.72;5074087;28;20783;-36
2022/01/02 09:53:02;;;;;;;8.10;5.27;;;;;;;14.17;68.61;97546.84;5073948;28;20480;-35
2022/01/02 09:55:30;;;;;;;11.27;6.37;;;;;;;14.09;68.30;97545.41;5073991;28;20447;-35
2022/01/02 09:57:59;;;;;;;31.77;13.53;;;;;;;13.95;68.93;97522.72;5073621;28;20440;-36
2022/01/02 10:00:28;;;;;;;28.33;15.33;;;;;;;13.90;70.31;97532.25;5073459;28;20939;-35
2022/01/02 10:02:56;;;;;;;26.30;12.93;;;;;;;13.88;71.62;97539.69;5073849;28;20482;-35
2022/01/02 10:05:26;;;;;;;23.23;11.90;;;;;;;13.73;69.46;97521.53;5073615;28;20443;-36
2022/01/02 10:07:54;;;;;;;17.93;10.13;;;;;;;13.61;69.26;97519.94;5073506;28;20439;-35
2022/01/02 10:10:23;;;;;;;23.17;12.27;;;;;;;13.54;70.33;97519.28;5073193;28;20535;-33
2022/01/02 10:12:50;;;;;;;34.53;13.63;;;;;;;13.42;69.54;97529.97;5074048;28;20776;-35
2022/01/02 10:15:20;;;;;;;15.13;8.20;;;;;;;13.38;71.06;97535.00;5073722;28;20448;-35
2022/01/02 10:17:58;;;;;;;6.77;5.57;;;;;;;13.31;70.69;97518.28;5072955;28;20447;-34
2022/01/02 10:20:29;;;;;;;25.57;12.67;;;;;;;13.27;71.83;97511.78;5073475;28;20494;-33
2022/01/02 10:23:10;;;;;;;28.77;11.73;;;;;;;13.28;71.48;97502.75;5082485;28;20435;-34
2022/01/02 10:25:39;;;;;;;39.17;19.73;;;;;;;13.25;72.08;97509.38;5093480;28;20419;-34
2022/01/02 10:28:28;;;;;;;83.83;35.70;;;;;;;13.31;73.12;97496.97;5086347;28;20530;-34
2022/01/02 10:30:59;;;;;;;28.03;13.47;;;;;;;13.39;71.39;97499.25;5073351;28;20930;-33
2022/01/02 10:33:27;;;;;;;16.33;9.70;;;;;;;13.38;71.83;97497.66;5073677;28;20455;-33
2022/01/02 10:36:03;;;;;;;21.23;13.00;;;;;;;13.38;72.40;97492.31;5093417;28;20450;-32
2022/01/02 10:41:12;;;;;;;13.80;9.80;;;;;;;13.49;71.87;97478.13;5072255;28;20955;-35
2022/01/02 10:43:39;;;;;;;29.50;17.87;;;;;;;13.64;71.21;97479.47;5073074;28;20480;-34
2022/01/02 10:46:09;;;;;;;47.47;18.33;;;;;;;13.84;70.06;97474.47;5072988;28;20436;-35
2022/01/02 10:48:40;;;;;;;20.67;12.80;;;;;;;14.02;69.09;97475.31;5073321;28;20440;-35
2022/01/02 10:51:14;;;;;;;8.90;6.70;;;;;;;14.18;69.95;97482.53;5072774;28;20521;-33
2022/01/02 10:53:53;;;;;;;17.90;10.23;;;;;;;14.41;69.27;97475.38;5073214;28;20516;-35
2022/01/02 10:56:22;;;;;;;18.60;9.53;;;;;;;14.57;68.69;97477.28;5072975;28;20515;-34
2022/01/02 10:58:50;;;;;;;6.80;5.37;;;;;;;14.61;66.17;97461.56;5073468;28;20876;-34
2022/01/02 11:01:18;;;;;;;8.10;5.47;;;;;;;14.70;67.14;97471.56;5072648;28;20615;-34
2022/01/02 11:03:47;;;;;;;6.97;5.60;;;;;;;14.79;66.06;97471.16;5073479;28;20565;-34
2022/01/02 11:06:23;;;;;;;5.40;4.80;;;;;;;14.90;66.30;97470.22;5072931;28;20810;-34
2022/01/02 11:08:54;;;;;;;28.77;12.87;;;;;;;14.96;65.37;97471.94;5073344;28;20435;-35
2022/01/02 11:11:21;;;;;;;28.33;11.83;;;;;;;15.04;65.45;97471.50;5072904;28;20561;-35
2022/01/02 11:13:50;;;;;;;5.77;5.13;;;;;;;15.09;64.85;97468.06;5072970;28;20785;-33
2022/01/02 11:16:19;;;;;;;11.53;7.13;;;;;;;15.15;64.32;97469.75;5072982;28;20475;-34
2022/01/02 11:18:48;;;;;;;11.37;5.13;;;;;;;15.17;62.61;97464.97;5072912;28;20601;-34
2022/01/02 11:21:17;;;;;;;7.47;3.63;;;;;;;15.19;62.91;97454.84;5073252;28;20448;-35
2022/01/02 11:23:54;;;;;;;5.83;4.40;;;;;;;15.19;62.70;97451.34;5073791;28;20438;-34
2022/01/02 11:26:30;;;;;;;8.13;5.43;;;;;;;15.10;63.12;97440.25;5073460;28;20427;-35
2022/01/02 11:28:58;;;;;;;3.93;3.33;;;;;;;15.08;62.10;97456.56;5074488;28;20436;-35
2022/01/02 11:31:29;;;;;;;31.20;12.70;;;;;;;15.15;63.39;97462.53;5076981;28;20446;-36
2022/01/02 11:33:57;;;;;;;5.77;4.20;;;;;;;15.20;62.54;97455.63;5076987;28;20442;-36
2022/01/02 11:36:29;;;;;;;7.50;4.40;;;;;;;15.25;62.39;97461.03;5076606;28;20939;-34
2022/01/02 11:39:01;;;;;;;11.53;7.53;;;;;;;15.34;62.77;97449.66;5076568;28;20471;-34
2022/01/02 11:41:40;;;;;;;20.33;9.33;;;;;;;15.29;62.67;97460.31;5076618;28;20443;-34
2022/01/02 11:44:09;;;;;;;5.30;4.10;;;;;;;15.21;62.59;97433.16;5076434;28;20475;-37
2022/01/02 11:46:42;;;;;;;4.37;3.53;;;;;;;15.25;62.69;97455.69;5077028;28;20918;-37